Time;durP1;ratioP1;P1;durP2;ratioP2;P2;SDS_P1;SDS_P2;PMS_P1;PMS_P2;Temp;Humidity;BMP_temperature;BMP_pressure;BME280_temperature;BME280_humidity;BME280_pressure;Samples;Min_cycle;Max_cycle;Signal;HPM_P1;HPM_P2
2024/03/08 00:00:12;;;;;;;20.33;13.68;;;3.40;68.20;;;;;;5135959;27;20265;-67
2024/03/08 00:02:39;;;;;;;20.75;12.77;;;3.40;68.70;;;;;;5136397;27;20191;-67
2024/03/08 00:05:08;;;;;;;20.33;13.10;;;3.30;68.80;;;;;;5135822;27;20244;-67
2024/03/08 00:07:37;;;;;;;18.95;11.70;;;3.30;68.50;;;;;;5136088;27;20256;-67
2024/03/08 00:10:04;;;;;;;19.73;12.02;;;3.30;68.30;;;;;;5135765;27;20188;-67
2024/03/08 00:12:31;;;;;;;22.60;13.80;;;3.30;68.20;;;;;;5136062;27;20241;-67
2024/03/08 00:14:58;;;;;;;25.73;14.55;;;3.20;68.40;;;;;;5135618;27;20191;-67
2024/03/08 00:17:27;;;;;;;29.25;15.43;;;3.20;69.40;;;;;;5135947;27;20200;-67
2024/03/08 00:19:54;;;;;;;22.63;13.85;;;3.10;69.30;;;;;;5135901;27;20216;-67
2024/03/08 00:22:22;;;;;;;20.33;13.32;;;3.10;69.80;;;;;;5135725;27;20230;-67
2024/03/08 00:24:51;;;;;;;22.25;14.07;;;3.10;70.00;;;;;;5135696;27;20294;-67
2024/03/08 00:27:20;;;;;;;28.08;14.77;;;3.10;69.80;;;;;;5135434;27;20188;-67
2024/03/08 00:29:48;;;;;;;21.00;13.20;;;3.10;69.40;;;;;;5135448;27;20195;-67
2024/03/08 00:32:14;;;;;;;22.92;15.48;;;3.10;69.30;;;;;;5135630;27;20549;-67
2024/03/08 00:34:41;;;;;;;21.83;13.10;;;3.00;69.70;;;;;;5135574;27;20282;-67
2024/03/08 00:37:08;;;;;;;26.98;16.05;;;3.00;70.10;;;;;;5135409;27;20210;-67
2024/03/08 00:39:35;;;;;;;19.83;13.73;;;3.00;70.10;;;;;;5135165;27;20214;-67
2024/03/08 00:42:04;;;;;;;23.25;13.43;;;3.00;69.30;;;;;;5135156;27;20176;-67
2024/03/08 00:44:31;;;;;;;21.48;14.05;;;2.90;69.40;;;;;;5134932;27;20250;-67
2024/03/08 00:46:58;;;;;;;22.38;11.77;;;2.90;69.70;;;;;;5135457;27;20187;-67
2024/03/08 00:49:25;;;;;;;21.83;12.52;;;2.90;69.50;;;;;;5134920;27;20238;-67
2024/03/08 00:51:53;;;;;;;17.27;11.25;;;2.90;69.30;;;;;;5135277;27;20200;-67
2024/03/08 00:54:20;;;;;;;20.67;12.82;;;2.80;69.10;;;;;;5135284;27;20621;-67
2024/03/08 00:56:47;;;;;;;17.52;11.35;;;2.80;69.30;;;;;;5134896;27;20227;-67
2024/03/08 00:59:18;;;;;;;25.83;12.38;;;2.80;69.60;;;;;;5134713;27;20199;-67
2024/03/08 01:01:45;;;;;;;17.75;11.65;;;2.80;69.80;;;;;;5134723;27;20212;-67
2024/03/08 01:04:12;;;;;;;19.45;13.57;;;2.70;69.70;;;;;;5134668;27;20279;-67
2024/03/08 01:06:39;;;;;;;24.65;13.88;;;2.80;70.20;;;;;;5135183;27;20331;-67
2024/03/08 01:09:07;;;;;;;19.85;13.68;;;2.80;70.00;;;;;;5135064;27;20241;-67
2024/03/08 01:11:34;;;;;;;22.02;14.15;;;2.80;70.60;;;;;;5134270;27;20183;-67
2024/03/08 01:14:02;;;;;;;21.27;13.65;;;2.80;70.70;;;;;;5134807;27;20198;-67
2024/03/08 01:16:33;;;;;;;24.70;13.70;;;2.70;70.70;;;;;;5134661;27;20637;-67
2024/03/08 01:19:00;;;;;;;23.35;13.98;;;2.80;71.00;;;;;;5134958;27;20176;-67
2024/03/08 01:21:27;;;;;;;22.27;13.40;;;2.80;70.70;;;;;;5134748;27;20238;-67
2024/03/08 01:23:53;;;;;;;25.05;14.55;;;2.80;71.30;;;;;;5134418;27;20227;-67
2024/03/08 01:26:20;;;;;;;20.02;14.40;;;2.90;72.20;;;;;;5134637;27;20295;-67
2024/03/08 01:28:47;;;;;;;23.98;14.40;;;2.90;71.60;;;;;;5134873;27;20184;-67
2024/03/08 01:31:15;;;;;;;21.60;13.13;;;2.90;71.60;;;;;;5134643;27;20200;-67
2024/03/08 01:33:44;;;;;;;21.45;13.02;;;2.90;72.30;;;;;;5134235;27;20198;-67
2024/03/08 01:36:11;;;;;;;20.35;12.93;;;3.00;72.70;;;;;;5134637;27;20252;-67
2024/03/08 01:38:38;;;;;;;24.08;12.63;;;3.00;72.40;;;;;;5134295;27;20211;-67
2024/03/08 01:41:05;;;;;;;22.92;13.90;;;3.10;72.80;;;;;;5134222;27;20653;-67
2024/03/08 01:43:32;;;;;;;20.98;13.10;;;3.10;72.70;;;;;;5134263;28;20219;-67
2024/03/08 01:46:00;;;;;;;24.27;13.73;;;3.10;72.90;;;;;;5134383;27;20208;-67
2024/03/08 01:48:28;;;;;;;22.63;14.80;;;3.20;73.50;;;;;;5134118;28;20279;-67
2024/03/08 01:50:57;;;;;;;21.15;13.93;;;3.20;73.60;;;;;;5134127;28;20195;-67
2024/03/08 01:53:25;;;;;;;23.38;14.82;;;3.20;73.30;;;;;;5134461;27;20191;-67
2024/03/08 01:55:57;;;;;;;21.63;13.30;;;3.20;73.20;;;;;;5134026;28;20187;-67
2024/03/08 01:58:25;;;;;;;21.45;14.63;;;3.20;73.50;;;;;;5134401;28;20218;-67
2024/03/08 02:00:54;;;;;;;23.48;15.75;;;3.30;73.70;;;;;;5134350;27;20599;-67
2024/03/08 02:03:21;;;;;;;25.98;14.07;;;3.30;73.30;;;;;;5134348;28;20280;-67
2024/03/08 02:05:48;;;;;;;22.52;13.13;;;3.30;73.40;;;;;;5134114;27;20211;-67
2024/03/08 02:08:17;;;;;;;22.40;13.98;;;3.30;73.90;;;;;;5134380;27;20260;-67
2024/03/08 02:10:45;;;;;;;22.60;14.55;;;3.30;74.50;;;;;;5133905;28;20231;-67
2024/03/08 02:13:13;;;;;;;24.15;16.83;;;3.40;74.80;;;;;;5134195;28;20223;-67
2024/03/08 02:15:54;;;;;;;28.45;17.33;;;3.40;75.20;;;;;;5133895;28;20237;-67
2024/03/08 02:18:22;;;;;;;21.77;14.45;;;3.40;75.20;;;;;;5133865;28;20226;-67
2024/03/08 02:20:50;;;;;;;26.42;15.68;;;3.50;75.30;;;;;;5134158;28;20219;-67
2024/03/08 02:23:19;;;;;;;25.50;15.98;;;3.50;75.40;;;;;;5135367;27;20223;-67
2024/03/08 02:25:46;;;;;;;25.50;14.35;;;3.50;75.60;;;;;;5137705;27;20681;-67
2024/03/08 02:28:14;;;;;;;27.33;16.35;;;3.60;76.00;;;;;;5137723;27;20219;-67
2024/03/08 02:30:41;;;;;;;27.85;15.27;;;3.50;76.00;;;;;;5137670;27;20209;-68
2024/03/08 02:33:09;;;;;;;24.15;15.70;;;3.70;76.10;;;;;;5137532;27;20649;-67
2024/03/08 02:35:37;;;;;;;26.35;15.93;;;3.70;75.50;;;;;;5137673;27;20282;-67
2024/03/08 02:38:05;;;;;;;30.38;17.27;;;3.70;75.60;;;;;;5137871;27;20187;-67
2024/03/08 02:40:32;;;;;;;27.45;16.15;;;3.70;75.80;;;;;;5137544;27;20271;-67
2024/03/08 02:42:59;;;;;;;28.48;15.85;;;3.70;76.10;;;;;;5137454;27;20227;-67
2024/03/08 02:45:26;;;;;;;32.22;17.80;;;3.70;76.40;;;;;;5137815;27;20247;-67
2024/03/08 02:47:53;;;;;;;30.17;16.15;;;3.70;75.70;;;;;;5137256;27;20217;-67
2024/03/08 02:50:22;;;;;;;26.90;17.23;;;3.70;76.30;;;;;;5137612;27;20213;-67
2024/03/08 02:52:49;;;;;;;26.40;15.57;;;3.70;76.70;;;;;;5137617;27;20188;-67
2024/03/08 02:55:17;;;;;;;26.13;15.70;;;3.70;76.90;;;;;;5137763;27;20596;-67
2024/03/08 02:57:47;;;;;;;25.58;16.02;;;3.70;77.00;;;;;;5137120;27;20278;-67
2024/03/08 03:00:15;;;;;;;28.08;15.68;;;3.70;76.80;;;;;;5137669;27;20191;-67
2024/03/08 03:02:43;;;;;;;23.63;14.70;;;3.70;77.00;;;;;;5137097;27;20192;-67
2024/03/08 03:05:11;;;;;;;25.02;15.38;;;3.70;76.90;;;;;;5137408;27;20188;-67
2024/03/08 03:07:39;;;;;;;24.98;19.02;;;3.80;77.10;;;;;;5137250;27;20274;-67
2024/03/08 03:10:08;;;;;;;30.20;16.30;;;3.80;77.10;;;;;;5137051;27;20223;-67
2024/03/08 03:12:36;;;;;;;25.98;16.50;;;3.80;77.20;;;;;;5137216;27;20537;-67
2024/03/08 03:15:03;;;;;;;28.85;16.40;;;3.80;77.30;;;;;;5137223;27;20188;-67
2024/03/08 03:17:30;;;;;;;28.30;18.40;;;3.80;77.20;;;;;;5137105;27;20195;-67
2024/03/08 03:19:57;;;;;;;30.70;17.40;;;3.90;77.40;;;;;;5136804;27;20231;-67
2024/03/08 03:22:25;;;;;;;27.50;17.25;;;3.90;77.20;;;;;;5137133;27;20199;-67
2024/03/08 03:24:53;;;;;;;28.52;17.27;;;3.90;77.40;;;;;;5136907;27;20238;-67
2024/03/08 03:27:20;;;;;;;24.73;15.52;;;3.90;77.10;;;;;;5136516;27;20222;-67
2024/03/08 03:29:49;;;;;;;26.98;17.25;;;4.00;77.20;;;;;;5136934;27;20220;-67
2024/03/08 03:32:16;;;;;;;22.10;14.85;;;3.90;77.10;;;;;;5136465;27;20192;-67
2024/03/08 03:34:43;;;;;;;26.08;17.30;;;3.90;77.30;;;;;;5136412;27;20584;-67
2024/03/08 03:37:12;;;;;;;26.70;16.17;;;4.00;77.50;;;;;;5136772;27;20203;-67
2024/03/08 03:39:48;;;;;;;26.63;14.52;;;4.00;77.40;;;;;;5136141;27;20203;-67
2024/03/08 03:42:16;;;;;;;25.02;15.55;;;4.00;77.30;;;;;;5136738;27;20228;-67
2024/03/08 03:44:48;;;;;;;28.20;16.63;;;4.00;77.30;;;;;;5136367;27;20188;-67
2024/03/08 03:47:16;;;;;;;26.73;17.08;;;4.00;77.20;;;;;;5136525;27;20714;-67
2024/03/08 03:49:43;;;;;;;28.65;16.95;;;4.10;77.30;;;;;;5136145;27;20268;-68
2024/03/08 03:52:11;;;;;;;23.42;14.77;;;4.10;77.00;;;;;;5136079;27;20192;-67
2024/03/08 03:54:38;;;;;;;24.55;15.88;;;4.00;77.00;;;;;;5136431;27;20202;-67
2024/03/08 03:57:05;;;;;;;27.50;15.63;;;4.00;77.10;;;;;;5136271;27;20202;-67
2024/03/08 03:59:34;;;;;;;28.23;15.88;;;4.10;77.30;;;;;;5136170;27;20192;-67
2024/03/08 04:02:01;;;;;;;21.15;14.45;;;4.00;77.10;;;;;;5135890;27;20219;-67
2024/03/08 04:04:29;;;;;;;30.40;16.60;;;4.10;77.30;;;;;;5136296;27;20226;-67
2024/03/08 04:06:56;;;;;;;26.42;17.42;;;4.10;77.20;;;;;;5136123;27;20243;-67
2024/03/08 04:09:23;;;;;;;26.30;15.90;;;4.10;77.10;;;;;;5136354;27;20196;-67
2024/03/08 04:11:52;;;;;;;25.95;17.25;;;4.10;77.20;;;;;;5136018;27;20223;-67
2024/03/08 04:14:19;;;;;;;29.13;16.27;;;4.10;77.20;;;;;;5135595;27;20188;-67
2024/03/08 04:16:48;;;;;;;25.13;16.10;;;4.10;77.40;;;;;;5136058;27;20252;-68
2024/03/08 04:19:15;;;;;;;25.05;15.23;;;4.10;77.60;;;;;;5135906;27;20194;-67
2024/03/08 04:21:43;;;;;;;25.30;16.67;;;4.10;77.30;;;;;;5135805;27;20192;-67
2024/03/08 04:24:10;;;;;;;28.92;16.13;;;4.10;77.50;;;;;;5135408;27;20192;-67
2024/03/08 04:26:37;;;;;;;23.45;15.25;;;4.10;77.60;;;;;;5135358;27;20215;-67
2024/03/08 04:29:04;;;;;;;23.65;15.82;;;4.10;77.60;;;;;;5135747;27;20194;-67
2024/03/08 04:31:32;;;;;;;27.35;14.57;;;4.10;77.50;;;;;;5135344;27;20690;-67
2024/03/08 04:33:58;;;;;;;28.92;16.65;;;4.10;77.40;;;;;;5135548;27;20192;-67
2024/03/08 04:36:26;;;;;;;30.55;15.82;;;4.10;77.60;;;;;;5135223;27;20241;-67
2024/03/08 04:38:54;;;;;;;26.00;16.63;;;4.10;77.60;;;;;;5135716;27;20239;-67
2024/03/08 04:41:23;;;;;;;25.17;15.98;;;4.10;77.70;;;;;;5135023;27;20277;-67
2024/03/08 04:43:50;;;;;;;28.85;15.90;;;4.10;77.80;;;;;;5135545;27;20192;-67
2024/03/08 04:46:17;;;;;;;24.80;14.07;;;4.10;78.00;;;;;;5134558;27;20235;-67
2024/03/08 04:48:44;;;;;;;24.42;15.05;;;4.10;77.90;;;;;;5135009;27;20732;-67
2024/03/08 04:51:11;;;;;;;31.27;16.92;;;4.10;77.70;;;;;;5134991;27;20187;-67
2024/03/08 04:53:38;;;;;;;23.95;14.70;;;4.10;77.50;;;;;;5135080;27;20638;-67
2024/03/08 04:56:07;;;;;;;26.38;15.82;;;4.10;77.60;;;;;;5134920;27;20195;-67
2024/03/08 04:58:36;;;;;;;29.65;18.33;;;4.10;77.20;;;;;;5135213;27;20188;-67
2024/03/08 05:01:10;;;;;;;22.73;14.65;;;4.10;77.50;;;;;;5134838;27;20238;-67
2024/03/08 05:03:38;;;;;;;29.60;15.52;;;4.10;77.30;;;;;;5135361;27;20207;-67
2024/03/08 05:06:05;;;;;;;21.35;12.55;;;4.10;77.40;;;;;;5134817;27;20596;-67
2024/03/08 05:08:34;;;;;;;19.15;11.90;;;4.10;77.50;;;;;;5134718;27;20551;-67
2024/03/08 05:11:03;;;;;;;20.83;12.07;;;4.10;76.80;;;;;;5134717;27;20188;-67
2024/03/08 05:13:32;;;;;;;18.58;11.20;;;4.10;76.80;;;;;;5135010;27;20192;-67
2024/03/08 05:15:59;;;;;;;21.85;12.52;;;4.10;76.90;;;;;;5134998;27;20241;-67
2024/03/08 05:18:28;;;;;;;23.85;13.70;;;4.10;76.80;;;;;;5134992;27;20520;-67
2024/03/08 05:20:55;;;;;;;23.92;12.82;;;4.00;76.40;;;;;;5134570;27;20190;-68
2024/03/08 05:23:24;;;;;;;23.83;12.65;;;4.00;76.70;;;;;;5134607;27;20274;-67
2024/03/08 05:25:51;;;;;;;24.35;13.27;;;3.90;76.70;;;;;;5134645;27;20194;-67
2024/03/08 05:28:18;;;;;;;20.60;11.98;;;3.90;77.00;;;;;;5134440;27;20649;-67
2024/03/08 05:30:48;;;;;;;25.75;12.35;;;3.90;77.00;;;;;;5134715;27;20187;-67
2024/03/08 05:33:15;;;;;;;17.65;10.40;;;3.90;77.30;;;;;;5134841;27;20219;-67
2024/03/08 05:35:42;;;;;;;20.67;12.88;;;3.90;76.90;;;;;;5134691;27;20232;-67
2024/03/08 05:38:09;;;;;;;21.77;13.00;;;3.90;76.90;;;;;;5134352;27;20677;-67
2024/03/08 05:40:35;;;;;;;19.70;12.95;;;3.90;76.90;;;;;;5134710;27;20215;-67
2024/03/08 05:43:02;;;;;;;22.50;13.98;;;3.90;76.70;;;;;;5134276;27;20184;-67
2024/03/08 05:45:29;;;;;;;20.77;13.70;;;3.90;76.70;;;;;;5134635;27;20558;-67
2024/03/08 05:47:58;;;;;;;22.95;14.13;;;3.90;76.80;;;;;;5134435;28;20264;-68
2024/03/08 05:50:25;;;;;;;20.70;12.77;;;3.90;76.80;;;;;;5134655;28;20242;-67
2024/03/08 05:52:52;;;;;;;18.73;12.43;;;3.90;76.60;;;;;;5134565;28;20187;-67
2024/03/08 05:55:19;;;;;;;21.63;13.20;;;3.90;76.80;;;;;;5134501;28;20278;-67
2024/03/08 05:57:46;;;;;;;22.92;13.90;;;3.80;77.00;;;;;;5137279;27;20248;-67
2024/03/08 06:00:15;;;;;;;22.63;13.40;;;3.90;77.00;;;;;;5138049;27;20184;-67
2024/03/08 06:02:42;;;;;;;18.95;11.80;;;3.80;77.10;;;;;;5137989;27;20198;-67
2024/03/08 06:05:11;;;;;;;20.38;11.60;;;3.90;77.10;;;;;;5138374;27;20580;-67
2024/03/08 06:07:40;;;;;;;17.88;11.48;;;3.80;77.00;;;;;;5138217;27;20302;-67
2024/03/08 06:10:09;;;;;;;18.83;12.32;;;3.90;77.30;;;;;;5138619;27;20275;-67
2024/03/08 06:12:40;;;;;;;25.13;13.35;;;3.80;76.70;;;;;;5138287;27;20310;-67
2024/03/08 06:15:08;;;;;;;22.98;14.15;;;3.80;77.10;;;;;;5138260;27;20192;-66
2024/03/08 06:17:35;;;;;;;24.58;14.48;;;3.80;77.30;;;;;;5138034;27;20550;-66
2024/03/08 06:20:03;;;;;;;21.70;12.70;;;3.80;77.50;;;;;;5137793;27;20248;-66
2024/03/08 06:22:31;;;;;;;20.40;13.52;;;3.80;77.70;;;;;;5138257;27;20206;-66
2024/03/08 06:24:58;;;;;;;20.65;12.48;;;3.90;77.60;;;;;;5137769;27;20241;-66
2024/03/08 06:27:25;;;;;;;23.80;12.93;;;3.90;77.40;;;;;;5137950;27;20211;-66
2024/03/08 06:29:52;;;;;;;23.67;13.57;;;3.90;77.50;;;;;;5137975;27;20192;-66
2024/03/08 06:32:19;;;;;;;23.25;12.57;;;3.80;77.80;;;;;;5138029;27;20554;-66
2024/03/08 06:34:49;;;;;;;22.02;13.93;;;3.90;78.30;;;;;;5137871;27;20550;-66
2024/03/08 06:37:21;;;;;;;22.63;12.75;;;3.90;78.50;;;;;;5137493;27;20244;-68
2024/03/08 06:39:50;;;;;;;20.67;13.25;;;3.90;78.70;;;;;;5137461;27;20624;-66
2024/03/08 06:42:18;;;;;;;23.27;13.25;;;3.90;78.80;;;;;;5137689;27;20199;-66
2024/03/08 06:44:49;;;;;;;18.95;11.95;;;4.00;78.80;;;;;;5137458;27;20196;-66
2024/03/08 06:47:16;;;;;;;19.20;11.20;;;4.00;78.60;;;;;;5137269;27;20195;-66
2024/03/08 06:49:43;;;;;;;18.88;11.43;;;4.00;78.20;;;;;;5137484;27;20603;-66
2024/03/08 06:52:11;;;;;;;17.52;11.05;;;4.00;77.70;;;;;;5137370;27;20192;-66
2024/03/08 06:54:38;;;;;;;17.67;13.85;;;4.00;77.50;;;;;;5137527;27;20597;-66
2024/03/08 06:57:10;;;;;;;23.52;12.45;;;4.00;77.30;;;;;;5137406;27;20202;-67
2024/03/08 06:59:39;;;;;;;16.50;10.82;;;4.10;77.50;;;;;;5137432;27;20644;-66
2024/03/08 07:02:08;;;;;;;19.15;11.85;;;4.10;77.30;;;;;;5137405;27;20215;-66
2024/03/08 07:04:37;;;;;;;18.10;11.10;;;4.10;77.40;;;;;;5136960;27;20274;-66
2024/03/08 07:07:05;;;;;;;16.58;11.38;;;4.10;77.60;;;;;;5137118;27;20215;-66
2024/03/08 07:09:32;;;;;;;15.85;10.32;;;4.10;77.60;;;;;;5136512;27;20192;-66
2024/03/08 07:11:59;;;;;;;19.40;11.80;;;4.10;77.40;;;;;;5137199;27;20192;-66
2024/03/08 07:14:27;;;;;;;21.50;12.23;;;4.10;77.40;;;;;;5136802;27;20650;-66
2024/03/08 07:16:54;;;;;;;19.85;11.98;;;4.10;77.70;;;;;;5136983;27;20231;-66
2024/03/08 07:19:21;;;;;;;19.40;10.98;;;4.20;77.40;;;;;;5136965;27;20587;-66
2024/03/08 07:21:48;;;;;;;20.02;11.18;;;4.20;77.30;;;;;;5137027;27;20198;-66
2024/03/08 07:24:32;;;;;;;19.63;12.73;;;4.20;76.90;;;;;;5136864;27;20378;-66
2024/03/08 07:26:59;;;;;;;18.55;10.55;;;4.20;77.20;;;;;;5136903;27;20203;-66
2024/03/08 07:29:28;;;;;;;19.48;10.32;;;4.20;77.50;;;;;;5136787;27;20491;-66
2024/03/08 07:32:07;;;;;;;16.45;10.90;;;4.20;77.50;;;;;;5136848;27;20244;-66
2024/03/08 07:34:34;;;;;;;20.63;11.82;;;4.30;76.40;;;;;;5136654;27;20188;-66
2024/03/08 07:37:01;;;;;;;17.63;12.43;;;4.30;76.20;;;;;;5136630;27;20195;-68
2024/03/08 07:39:28;;;;;;;24.63;12.88;;;4.30;76.40;;;;;;5136461;27;20213;-66
2024/03/08 07:41:55;;;;;;;23.45;11.77;;;4.30;76.60;;;;;;5136710;27;20187;-66
2024/03/08 07:44:22;;;;;;;16.17;10.25;;;4.30;76.80;;;;;;5136543;27;20268;-66
2024/03/08 07:46:50;;;;;;;20.58;13.07;;;4.30;76.90;;;;;;5136468;27;20682;-66
2024/03/08 07:49:18;;;;;;;20.75;11.20;;;4.30;76.80;;;;;;5136374;27;20270;-66
2024/03/08 07:51:44;;;;;;;15.02;9.27;;;4.40;76.90;;;;;;5136410;27;20553;-66
2024/03/08 07:54:12;;;;;;;17.08;9.60;;;4.40;76.60;;;;;;5136467;27;20192;-66
2024/03/08 07:56:39;;;;;;;15.63;10.20;;;4.40;76.50;;;;;;5136323;27;20226;-66
2024/03/08 07:59:06;;;;;;;15.02;10.20;;;4.50;76.10;;;;;;5136268;27;20270;-66
2024/03/08 08:01:34;;;;;;;17.13;10.95;;;4.50;75.80;;;;;;5135677;27;20709;-66
2024/03/08 08:04:02;;;;;;;15.80;10.40;;;4.60;75.90;;;;;;5136070;27;20295;-66
2024/03/08 08:06:31;;;;;;;17.00;10.60;;;4.70;76.30;;;;;;5135696;27;20286;-67
2024/03/08 08:08:58;;;;;;;15.93;10.32;;;4.70;76.20;;;;;;5135975;27;20226;-66
2024/03/08 08:11:27;;;;;;;19.67;10.80;;;4.70;76.70;;;;;;5136048;27;20188;-67
2024/03/08 08:13:55;;;;;;;19.05;12.90;;;4.80;76.30;;;;;;5135536;27;20729;-67
2024/03/08 08:16:26;;;;;;;19.38;11.52;;;4.80;76.10;;;;;;5135752;27;20219;-66
2024/03/08 08:18:59;;;;;;;18.40;10.90;;;4.80;75.70;;;;;;5135577;27;20598;-66
2024/03/08 08:21:27;;;;;;;19.17;12.75;;;4.80;75.70;;;;;;5134639;27;20561;-66
2024/03/08 08:23:54;;;;;;;18.70;11.02;;;4.90;75.60;;;;;;5135867;27;20244;-66
2024/03/08 08:26:22;;;;;;;18.40;11.57;;;4.90;75.50;;;;;;5135765;27;20619;-66
2024/03/08 08:28:49;;;;;;;14.65;10.80;;;4.90;75.70;;;;;;5135269;27;20681;-66
2024/03/08 08:31:16;;;;;;;18.83;12.52;;;5.00;75.50;;;;;;5135567;27;20187;-66
2024/03/08 08:33:43;;;;;;;19.83;11.40;;;5.00;75.20;;;;;;5135136;27;20230;-66
2024/03/08 08:36:10;;;;;;;18.23;10.93;;;5.00;75.00;;;;;;5135430;27;20195;-66
2024/03/08 08:38:39;;;;;;;14.40;10.35;;;5.00;75.00;;;;;;5135060;27;20649;-66
2024/03/08 08:41:06;;;;;;;16.88;10.75;;;5.10;75.30;;;;;;5135154;27;20250;-66
2024/03/08 08:43:33;;;;;;;18.15;11.40;;;5.10;75.60;;;;;;5135295;27;20248;-66
2024/03/08 08:46:01;;;;;;;15.50;10.27;;;5.20;75.60;;;;;;5135260;27;20548;-66
2024/03/08 08:48:30;;;;;;;19.77;11.20;;;5.30;75.30;;;;;;5134853;27;20268;-66
2024/03/08 08:50:58;;;;;;;15.77;11.75;;;5.30;75.00;;;;;;5135160;27;20287;-67
2024/03/08 08:53:24;;;;;;;19.60;11.18;;;5.40;74.80;;;;;;5135097;27;20192;-66
2024/03/08 08:55:53;;;;;;;17.77;11.23;;;5.40;75.40;;;;;;5134915;27;20187;-66
2024/03/08 08:58:20;;;;;;;15.63;10.60;;;5.50;74.60;;;;;;5134789;27;20654;-66
2024/03/08 09:00:47;;;;;;;16.38;10.38;;;5.60;74.30;;;;;;5134673;27;20240;-66
2024/03/08 09:03:15;;;;;;;18.90;10.90;;;5.60;73.70;;;;;;5134604;27;20199;-67
2024/03/08 09:05:44;;;;;;;20.52;11.05;;;5.70;73.10;;;;;;5134826;27;20195;-66
2024/03/08 09:08:10;;;;;;;20.15;10.20;;;5.80;73.30;;;;;;5134748;27;20243;-67
2024/03/08 09:10:38;;;;;;;20.13;12.88;;;5.90;73.30;;;;;;5134514;27;20283;-67
2024/03/08 09:13:09;;;;;;;16.27;10.27;;;5.90;73.30;;;;;;5134389;27;20663;-67
2024/03/08 09:15:40;;;;;;;13.32;9.07;;;6.00;73.10;;;;;;5134728;27;20176;-67
2024/03/08 09:18:08;;;;;;;19.30;12.25;;;6.10;73.10;;;;;;5134893;27;20276;-69
2024/03/08 09:20:35;;;;;;;18.20;10.52;;;6.10;73.00;;;;;;5134579;27;20195;-66
2024/03/08 09:23:02;;;;;;;19.38;11.60;;;6.20;72.90;;;;;;5134536;27;20188;-67
2024/03/08 09:25:29;;;;;;;16.70;11.27;;;6.20;72.80;;;;;;5134519;27;20188;-66
2024/03/08 09:27:56;;;;;;;18.85;11.50;;;6.30;72.50;;;;;;5134382;27;20260;-67
2024/03/08 09:30:26;;;;;;;18.67;12.20;;;6.30;72.30;;;;;;5134587;27;20196;-66
2024/03/08 09:32:53;;;;;;;17.38;10.63;;;6.40;72.10;;;;;;5134175;27;20202;-67
2024/03/08 09:35:20;;;;;;;15.32;10.45;;;6.50;72.00;;;;;;5134053;27;20234;-67
2024/03/08 09:37:50;;;;;;;17.90;11.65;;;6.60;70.90;;;;;;5134349;27;20240;-67
2024/03/08 09:40:19;;;;;;;17.70;11.88;;;6.70;70.30;;;;;;5133737;27;20577;-67
2024/03/08 09:42:48;;;;;;;15.98;9.15;;;6.70;70.70;;;;;;5134251;27;20180;-67
2024/03/08 09:45:16;;;;;;;16.05;10.10;;;6.80;70.00;;;;;;5134308;27;20613;-66
2024/03/08 09:47:46;;;;;;;16.35;10.90;;;6.90;69.50;;;;;;5133812;28;20212;-66
2024/03/08 09:50:13;;;;;;;15.90;10.95;;;7.00;70.20;;;;;;5133958;28;20229;-66
2024/03/08 09:52:41;;;;;;;16.50;10.30;;;7.20;71.00;;;;;;5133858;28;20637;-67
2024/03/08 09:55:11;;;;;;;14.20;9.35;;;7.50;70.70;;;;;;5134194;28;20228;-67
2024/03/08 09:57:38;;;;;;;15.95;10.77;;;7.80;69.80;;;;;;5134421;28;20198;-67
2024/03/08 10:00:18;;;;;;;15.23;9.75;;;8.10;67.50;;;;;;5134103;28;20226;-67
2024/03/08 10:02:48;;;;;;;13.60;9.95;;;8.30;66.80;;;;;;5133883;27;20179;-67
2024/03/08 10:05:15;;;;;;;17.33;9.05;;;8.60;67.30;;;;;;5133852;28;20749;-67
2024/03/08 10:07:42;;;;;;;15.07;9.93;;;9.10;67.20;;;;;;5134089;27;20303;-67
2024/03/08 10:10:11;;;;;;;15.88;10.95;;;9.70;63.20;;;;;;5133758;28;20244;-67
2024/03/08 10:12:39;;;;;;;16.73;9.73;;;10.40;59.50;;;;;;5134087;27;20198;-67
2024/03/08 10:15:08;;;;;;;12.40;8.45;;;11.50;60.00;;;;;;5134019;28;20219;-67
2024/03/08 10:17:35;;;;;;;15.13;9.13;;;12.00;57.70;;;;;;5133667;28;20195;-67
2024/03/08 10:20:14;;;;;;;13.77;9.03;;;12.80;59.00;;;;;;5134137;28;20442;-68
2024/03/08 10:22:42;;;;;;;12.93;9.77;;;14.10;57.50;;;;;;5133641;27;20422;-68
2024/03/08 10:25:11;;;;;;;13.63;9.63;;;15.30;52.90;;;;;;5133903;28;20429;-66
2024/03/08 10:27:39;;;;;;;12.07;8.90;;;16.30;50.10;;;;;;5133772;28;20565;-67
2024/03/08 10:30:09;;;;;;;11.50;8.40;;;17.20;48.30;;;;;;5133885;27;20463;-67
2024/03/08 10:32:36;;;;;;;11.10;8.73;;;18.20;47.70;;;;;;5134001;28;20821;-67
2024/03/08 10:35:05;;;;;;;13.27;10.03;;;19.10;44.20;;;;;;5133860;28;20432;-67
2024/03/08 10:37:33;;;;;;;14.20;9.20;;;19.70;42.10;;;;;;5133756;28;20475;-67
2024/03/08 10:40:10;;;;;;;12.50;8.97;;;20.30;39.50;;;;;;5133738;27;20576;-67
2024/03/08 10:42:42;;;;;;;12.03;9.33;;;20.70;36.40;;;;;;5133772;27;20428;-67
2024/03/08 10:45:22;;;;;;;12.17;9.70;;;21.00;35.80;;;;;;5136734;27;20425;-67
2024/03/08 10:47:50;;;;;;;12.90;10.23;;;21.30;33.50;;;;;;5137626;27;20492;-68
2024/03/08 10:50:21;;;;;;;13.20;9.57;;;21.60;33.00;;;;;;5137169;27;20437;-67
2024/03/08 10:52:51;;;;;;;12.03;9.43;;;22.00;33.20;;;;;;5137441;27;20421;-68
2024/03/08 10:55:20;;;;;;;13.03;9.73;;;22.40;32.50;;;;;;5137138;27;20907;-67
2024/03/08 10:57:47;;;;;;;11.70;9.20;;;22.80;31.20;;;;;;5137343;27;20486;-68
2024/03/08 11:00:16;;;;;;;13.63;9.40;;;23.00;30.70;;;;;;5137152;27;20988;-68
2024/03/08 11:02:45;;;;;;;12.40;9.70;;;23.10;30.00;;;;;;5137271;27;20489;-68
2024/03/08 11:05:33;;;;;;;10.80;9.23;;;23.40;30.90;;;;;;5137245;27;20468;-68
2024/03/08 11:08:01;;;;;;;11.53;9.13;;;23.60;29.80;;;;;;5137562;27;20461;-68
2024/03/08 11:10:28;;;;;;;14.50;10.90;;;24.00;29.60;;;;;;5136817;27;20953;-68
2024/03/08 11:12:58;;;;;;;12.80;10.23;;;24.30;29.50;;;;;;5137166;27;20445;-68
2024/03/08 11:15:26;;;;;;;14.60;11.23;;;24.40;28.00;;;;;;5136761;27;20430;-68
2024/03/08 11:17:55;;;;;;;12.00;9.20;;;24.60;29.00;;;;;;5136969;27;20471;-68
2024/03/08 11:20:26;;;;;;;12.53;10.30;;;24.80;27.90;;;;;;5136555;27;20517;-68
2024/03/08 11:22:54;;;;;;;12.53;10.73;;;24.90;27.80;;;;;;5136946;27;20429;-69
2024/03/08 11:25:39;;;;;;;11.77;10.03;;;25.00;27.50;;;;;;5136839;27;20441;-67
2024/03/08 11:28:24;;;;;;;13.47;10.40;;;25.20;27.60;;;;;;5135614;27;20476;-67
2024/03/08 11:31:26;;;;;;;11.73;9.70;;;25.20;26.10;;;;;;5136772;27;20441;-68
2024/03/08 11:33:53;;;;;;;12.00;10.07;;;25.30;26.90;;;;;;5136803;27;20492;-68
2024/03/08 11:36:24;;;;;;;12.07;10.50;;;25.60;26.70;;;;;;5136693;27;20437;-67
2024/03/08 11:38:59;;;;;;;16.47;10.90;;;25.70;25.60;;;;;;5136549;27;20422;-68
2024/03/08 11:41:26;;;;;;;12.50;10.20;;;25.70;26.00;;;;;;5136553;27;20488;-67
2024/03/08 11:44:05;;;;;;;12.80;9.70;;;25.90;26.90;;;;;;5136120;27;20469;-67
2024/03/08 11:46:33;;;;;;;12.57;9.50;;;26.20;26.10;;;;;;5136000;27;20471;-68
2024/03/08 11:49:01;;;;;;;10.10;8.97;;;26.40;25.60;;;;;;5136249;27;20538;-68
2024/03/08 11:51:30;;;;;;;10.30;9.10;;;26.60;25.90;;;;;;5136268;27;20479;-68
2024/03/08 11:53:57;;;;;;;9.33;8.17;;;26.80;25.60;;;;;;5135967;27;20429;-67
2024/03/08 11:56:24;;;;;;;11.00;9.13;;;26.90;25.10;;;;;;5135768;27;20958;-69
2024/03/08 11:58:56;;;;;;;11.70;9.10;;;27.00;23.90;;;;;;5136216;27;20465;-68
2024/03/08 12:01:24;;;;;;;10.60;9.50;;;27.10;24.40;;;;;;5136245;27;20479;-68
2024/03/08 12:03:54;;;;;;;10.40;9.30;;;27.10;24.20;;;;;;5135762;27;20444;-68
2024/03/08 12:06:21;;;;;;;12.27;9.60;;;27.10;23.70;;;;;;5136375;27;20440;-68
2024/03/08 12:08:50;;;;;;;10.80;9.23;;;27.10;24.10;;;;;;5135899;27;20469;-68
2024/03/08 12:11:22;;;;;;;10.30;9.20;;;27.10;23.80;;;;;;5135570;27;20435;-70
2024/03/08 12:13:51;;;;;;;12.30;9.20;;;27.00;24.30;;;;;;5135521;27;20428;-68
2024/03/08 12:16:18;;;;;;;14.73;8.80;;;27.10;23.70;;;;;;5135857;27;20437;-68
2024/03/08 12:18:46;;;;;;;11.00;8.97;;;27.00;23.60;;;;;;5135798;27;20437;-68
2024/03/08 12:21:17;;;;;;;11.47;9.27;;;27.10;23.30;;;;;;5135799;27;20528;-68
2024/03/08 12:23:45;;;;;;;9.70;8.30;;;27.10;23.70;;;;;;5135962;27;20756;-68
2024/03/08 12:26:19;;;;;;;11.77;9.40;;;27.10;23.90;;;;;;5135426;27;20456;-68
2024/03/08 12:28:47;;;;;;;10.10;8.40;;;27.00;23.50;;;;;;5135635;27;20514;-68
2024/03/08 12:31:16;;;;;;;10.60;8.80;;;27.00;23.20;;;;;;5135768;27;20821;-68
2024/03/08 12:33:50;;;;;;;9.67;8.63;;;27.00;23.60;;;;;;5135506;27;20462;-68
2024/03/08 12:36:17;;;;;;;10.67;8.60;;;27.00;23.60;;;;;;5135264;27;20422;-68
2024/03/08 12:38:47;;;;;;;11.67;9.17;;;26.90;23.40;;;;;;5135103;27;20752;-68
2024/03/08 12:41:17;;;;;;;9.53;8.03;;;26.80;23.30;;;;;;5134775;27;20465;-68